Main page
METAR-TAF:

METAR-TAF

Airports :

Palma de Mallorca, Spain

Palma de Mallorca Airport

latitude: 39-33N, longitude: 002-44E, elevation: 4 m

Current weather observation

The report was made 34 minutes ago, at 18:30 UTC
Calm wind
Temperature 10°C
Humidity 87%
Pressure 1019 hPa
Visibility 10 km or more
Few clouds at a height of 2500 ft

METAR: LEPA 191830Z 00000KT 9999 FEW025 10/08 Q1019 NOSIG

Time: 20:04 (19:04 UTC)

Forecast

The report was made 2 hours and 4 minutes ago, at 17:00 UTC
Forecast valid from 19 at 18 UTC to 20 at 18 UTC
Wind 3 kt from variable directions
Visibility 10 km or more
Few clouds at a height of 2000 ft
Temporary
from 20 at 00 UTC to 20 at 12 UTC
Broken clouds at a height of 2000 ft
Becoming
from 20 at 12 UTC to 20 at 14 UTC
Wind 10 kt from the West

TAF: LEPA 191700Z 1918/2018 VRB03KT 9999 FEW020 TX17/2013Z TN05/2007Z TEMPO 2000/2012 BKN020 BECMG 2012/2014 27010KT

Weather observations and forecasts of more than 4000 airports (METAR and TAF reports).

The available stations are represented by yellow and red dots on the map.

Hover mouse over dot to see the name of the station.

Then click to see weather observations and forecasts.

To change the map : click on the green buttons with a black cross to zoom in, on the green button with a dash to zoom out, or on the green arrows for adjacent maps.


METAR-TAF: